sensor_id;sensor_type;location;lat;lon;timestamp;P1;durP1;ratioP1;P2;durP2;ratioP2
8716;SDS011;4395;48.554;8.820;2022-12-16T00:01:33;31.65;;;21.17;;
8716;SDS011;4395;48.554;8.820;2022-12-16T00:03:37;33.60;;;21.65;;
8716;SDS011;4395;48.554;8.820;2022-12-16T00:05:41;29.67;;;20.70;;
8716;SDS011;4395;48.554;8.820;2022-12-16T00:07:45;35.70;;;22.45;;
8716;SDS011;4395;48.554;8.820;2022-12-16T00:09:48;34.80;;;23.27;;
8716;SDS011;4395;48.554;8.820;2022-12-16T00:11:52;31.73;;;22.63;;
8716;SDS011;4395;48.554;8.820;2022-12-16T00:13:56;35.95;;;22.95;;
8716;SDS011;4395;48.554;8.820;2022-12-16T00:16:02;33.92;;;22.90;;
8716;SDS011;4395;48.554;8.820;2022-12-16T00:18:08;34.92;;;23.70;;
8716;SDS011;4395;48.554;8.820;2022-12-16T00:20:11;35.75;;;23.00;;
8716;SDS011;4395;48.554;8.820;2022-12-16T00:22:15;35.95;;;23.60;;
8716;SDS011;4395;48.554;8.820;2022-12-16T00:24:18;39.08;;;25.92;;
8716;SDS011;4395;48.554;8.820;2022-12-16T00:26:21;43.40;;;29.05;;
8716;SDS011;4395;48.554;8.820;2022-12-16T00:28:24;42.90;;;25.75;;
8716;SDS011;4395;48.554;8.820;2022-12-16T00:30:29;41.97;;;26.88;;
8716;SDS011;4395;48.554;8.820;2022-12-16T00:32:32;43.10;;;26.25;;
8716;SDS011;4395;48.554;8.820;2022-12-16T00:34:36;40.35;;;26.42;;
8716;SDS011;4395;48.554;8.820;2022-12-16T00:36:39;38.00;;;24.67;;
8716;SDS011;4395;48.554;8.820;2022-12-16T00:38:42;33.40;;;23.67;;
8716;SDS011;4395;48.554;8.820;2022-12-16T00:40:45;35.85;;;22.80;;
8716;SDS011;4395;48.554;8.820;2022-12-16T00:42:49;34.08;;;23.88;;
8716;SDS011;4395;48.554;8.820;2022-12-16T00:44:52;36.13;;;23.10;;
8716;SDS011;4395;48.554;8.820;2022-12-16T00:46:56;37.25;;;24.25;;
8716;SDS011;4395;48.554;8.820;2022-12-16T00:49:00;37.47;;;23.50;;
8716;SDS011;4395;48.554;8.820;2022-12-16T00:51:03;35.85;;;24.75;;
8716;SDS011;4395;48.554;8.820;2022-12-16T00:53:06;33.50;;;22.75;;
8716;SDS011;4395;48.554;8.820;2022-12-16T00:55:10;38.38;;;24.92;;
8716;SDS011;4395;48.554;8.820;2022-12-16T00:57:13;35.95;;;24.08;;
8716;SDS011;4395;48.554;8.820;2022-12-16T00:59:16;35.00;;;23.83;;
8716;SDS011;4395;48.554;8.820;2022-12-16T01:01:20;38.88;;;24.85;;
8716;SDS011;4395;48.554;8.820;2022-12-16T01:03:24;37.45;;;25.20;;
8716;SDS011;4395;48.554;8.820;2022-12-16T01:05:28;36.10;;;24.27;;
8716;SDS011;4395;48.554;8.820;2022-12-16T01:07:31;38.28;;;24.05;;
8716;SDS011;4395;48.554;8.820;2022-12-16T01:09:34;38.40;;;24.38;;
8716;SDS011;4395;48.554;8.820;2022-12-16T01:11:38;37.67;;;25.42;;
8716;SDS011;4395;48.554;8.820;2022-12-16T01:13:41;38.35;;;25.45;;
8716;SDS011;4395;48.554;8.820;2022-12-16T01:15:45;40.92;;;26.20;;
8716;SDS011;4395;48.554;8.820;2022-12-16T01:17:48;38.80;;;25.60;;
8716;SDS011;4395;48.554;8.820;2022-12-16T01:19:53;34.15;;;23.80;;
8716;SDS011;4395;48.554;8.820;2022-12-16T01:21:56;35.55;;;24.13;;
8716;SDS011;4395;48.554;8.820;2022-12-16T01:23:59;33.33;;;22.63;;
8716;SDS011;4395;48.554;8.820;2022-12-16T01:26:03;35.85;;;23.20;;
8716;SDS011;4395;48.554;8.820;2022-12-16T01:28:06;38.90;;;24.20;;
8716;SDS011;4395;48.554;8.820;2022-12-16T01:30:10;36.75;;;24.75;;
8716;SDS011;4395;48.554;8.820;2022-12-16T01:32:14;35.05;;;22.00;;
8716;SDS011;4395;48.554;8.820;2022-12-16T01:34:18;36.53;;;25.15;;
8716;SDS011;4395;48.554;8.820;2022-12-16T01:36:23;35.78;;;22.67;;
8716;SDS011;4395;48.554;8.820;2022-12-16T01:38:26;35.03;;;22.75;;
8716;SDS011;4395;48.554;8.820;2022-12-16T01:40:30;39.45;;;24.98;;
8716;SDS011;4395;48.554;8.820;2022-12-16T01:42:33;35.33;;;23.02;;
8716;SDS011;4395;48.554;8.820;2022-12-16T01:44:37;34.28;;;23.02;;
8716;SDS011;4395;48.554;8.820;2022-12-16T01:46:40;36.70;;;23.98;;
8716;SDS011;4395;48.554;8.820;2022-12-16T01:48:46;33.22;;;23.23;;
8716;SDS011;4395;48.554;8.820;2022-12-16T01:50:55;34.63;;;23.23;;
8716;SDS011;4395;48.554;8.820;2022-12-16T01:53:06;33.53;;;22.88;;
8716;SDS011;4395;48.554;8.820;2022-12-16T01:55:11;35.63;;;23.13;;
8716;SDS011;4395;48.554;8.820;2022-12-16T01:57:23;33.83;;;22.77;;
8716;SDS011;4395;48.554;8.820;2022-12-16T01:59:32;34.65;;;23.23;;
8716;SDS011;4395;48.554;8.820;2022-12-16T02:01:39;34.38;;;22.67;;
8716;SDS011;4395;48.554;8.820;2022-12-16T02:03:42;33.92;;;21.63;;
8716;SDS011;4395;48.554;8.820;2022-12-16T02:05:46;34.28;;;22.90;;
8716;SDS011;4395;48.554;8.820;2022-12-16T02:07:53;33.83;;;22.30;;
8716;SDS011;4395;48.554;8.820;2022-12-16T02:10:04;35.97;;;22.13;;
8716;SDS011;4395;48.554;8.820;2022-12-16T02:12:12;32.35;;;21.48;;
8716;SDS011;4395;48.554;8.820;2022-12-16T02:14:36;32.15;;;21.95;;
8716;SDS011;4395;48.554;8.820;2022-12-16T02:17:00;31.60;;;21.75;;
8716;SDS011;4395;48.554;8.820;2022-12-16T02:19:10;32.15;;;21.88;;
8716;SDS011;4395;48.554;8.820;2022-12-16T02:21:34;32.10;;;21.08;;
8716;SDS011;4395;48.554;8.820;2022-12-16T02:23:56;31.67;;;20.80;;
8716;SDS011;4395;48.554;8.820;2022-12-16T02:26:37;33.20;;;20.60;;
8716;SDS011;4395;48.554;8.820;2022-12-16T02:29:24;33.30;;;21.02;;
8716;SDS011;4395;48.554;8.820;2022-12-16T02:31:46;31.70;;;20.05;;
8716;SDS011;4395;48.554;8.820;2022-12-16T02:34:01;31.70;;;20.92;;
8716;SDS011;4395;48.554;8.820;2022-12-16T02:36:21;31.85;;;20.50;;
8716;SDS011;4395;48.554;8.820;2022-12-16T02:38:38;30.33;;;20.00;;
8716;SDS011;4395;48.554;8.820;2022-12-16T02:40:58;31.73;;;21.52;;
8716;SDS011;4395;48.554;8.820;2022-12-16T02:43:06;32.15;;;21.75;;
8716;SDS011;4395;48.554;8.820;2022-12-16T02:45:16;31.73;;;21.50;;
8716;SDS011;4395;48.554;8.820;2022-12-16T02:47:24;36.05;;;21.88;;
8716;SDS011;4395;48.554;8.820;2022-12-16T02:49:40;31.00;;;20.17;;
8716;SDS011;4395;48.554;8.820;2022-12-16T02:51:48;32.42;;;22.30;;
8716;SDS011;4395;48.554;8.820;2022-12-16T02:53:52;37.47;;;24.75;;
8716;SDS011;4395;48.554;8.820;2022-12-16T02:55:59;36.00;;;22.75;;
8716;SDS011;4395;48.554;8.820;2022-12-16T02:58:13;36.35;;;22.70;;
8716;SDS011;4395;48.554;8.820;2022-12-16T03:00:21;35.83;;;24.10;;
8716;SDS011;4395;48.554;8.820;2022-12-16T03:02:27;31.50;;;22.85;;
8716;SDS011;4395;48.554;8.820;2022-12-16T03:04:39;33.63;;;23.00;;
8716;SDS011;4395;48.554;8.820;2022-12-16T03:06:49;32.80;;;22.55;;
8716;SDS011;4395;48.554;8.820;2022-12-16T03:08:55;36.88;;;23.45;;
8716;SDS011;4395;48.554;8.820;2022-12-16T03:11:02;36.95;;;24.27;;
8716;SDS011;4395;48.554;8.820;2022-12-16T03:13:08;34.75;;;23.08;;
8716;SDS011;4395;48.554;8.820;2022-12-16T03:15:14;33.90;;;23.15;;
8716;SDS011;4395;48.554;8.820;2022-12-16T03:17:21;38.03;;;24.08;;
8716;SDS011;4395;48.554;8.820;2022-12-16T03:19:28;33.65;;;22.08;;
8716;SDS011;4395;48.554;8.820;2022-12-16T03:21:33;32.72;;;22.10;;
8716;SDS011;4395;48.554;8.820;2022-12-16T03:23:44;33.40;;;21.50;;
8716;SDS011;4395;48.554;8.820;2022-12-16T03:25:53;34.60;;;21.80;;
8716;SDS011;4395;48.554;8.820;2022-12-16T03:28:03;30.05;;;19.95;;
8716;SDS011;4395;48.554;8.820;2022-12-16T03:30:13;33.15;;;19.92;;
8716;SDS011;4395;48.554;8.820;2022-12-16T03:32:20;31.83;;;19.75;;
8716;SDS011;4395;48.554;8.820;2022-12-16T03:34:34;29.30;;;19.70;;
8716;SDS011;4395;48.554;8.820;2022-12-16T03:36:42;31.40;;;20.48;;
8716;SDS011;4395;48.554;8.820;2022-12-16T03:38:50;31.63;;;20.35;;
8716;SDS011;4395;48.554;8.820;2022-12-16T03:40:54;30.02;;;20.80;;
8716;SDS011;4395;48.554;8.820;2022-12-16T03:42:59;28.02;;;20.02;;
8716;SDS011;4395;48.554;8.820;2022-12-16T03:45:04;29.10;;;20.42;;
8716;SDS011;4395;48.554;8.820;2022-12-16T03:47:10;30.40;;;19.67;;
8716;SDS011;4395;48.554;8.820;2022-12-16T03:49:20;31.02;;;20.83;;
8716;SDS011;4395;48.554;8.820;2022-12-16T03:51:25;33.65;;;22.55;;
8716;SDS011;4395;48.554;8.820;2022-12-16T03:53:28;31.17;;;19.95;;
8716;SDS011;4395;48.554;8.820;2022-12-16T03:55:32;29.08;;;19.27;;
8716;SDS011;4395;48.554;8.820;2022-12-16T03:57:35;32.03;;;21.05;;
8716;SDS011;4395;48.554;8.820;2022-12-16T03:59:38;27.55;;;19.05;;
8716;SDS011;4395;48.554;8.820;2022-12-16T04:01:42;31.58;;;20.75;;
8716;SDS011;4395;48.554;8.820;2022-12-16T04:03:45;29.90;;;20.27;;
8716;SDS011;4395;48.554;8.820;2022-12-16T04:05:49;29.25;;;19.85;;
8716;SDS011;4395;48.554;8.820;2022-12-16T04:07:53;29.17;;;19.38;;
8716;SDS011;4395;48.554;8.820;2022-12-16T04:10:03;28.63;;;19.38;;
8716;SDS011;4395;48.554;8.820;2022-12-16T04:12:07;28.20;;;19.17;;
8716;SDS011;4395;48.554;8.820;2022-12-16T04:14:43;30.38;;;20.13;;
8716;SDS011;4395;48.554;8.820;2022-12-16T04:17:04;28.65;;;19.10;;
8716;SDS011;4395;48.554;8.820;2022-12-16T04:19:26;27.35;;;19.05;;
8716;SDS011;4395;48.554;8.820;2022-12-16T04:21:48;27.85;;;19.42;;
8716;SDS011;4395;48.554;8.820;2022-12-16T04:26:20;29.35;;;19.02;;
8716;SDS011;4395;48.554;8.820;2022-12-16T04:28:24;30.02;;;18.98;;
8716;SDS011;4395;48.554;8.820;2022-12-16T04:30:28;29.73;;;19.80;;
8716;SDS011;4395;48.554;8.820;2022-12-16T04:32:34;28.30;;;19.02;;
8716;SDS011;4395;48.554;8.820;2022-12-16T04:34:52;26.60;;;18.70;;
8716;SDS011;4395;48.554;8.820;2022-12-16T04:36:56;25.13;;;18.13;;
8716;SDS011;4395;48.554;8.820;2022-12-16T04:39:20;25.98;;;18.63;;
8716;SDS011;4395;48.554;8.820;2022-12-16T04:41:40;25.35;;;18.00;;
8716;SDS011;4395;48.554;8.820;2022-12-16T04:44:01;24.55;;;18.30;;
8716;SDS011;4395;48.554;8.820;2022-12-16T04:46:22;28.25;;;19.23;;
8716;SDS011;4395;48.554;8.820;2022-12-16T04:48:43;28.08;;;18.70;;
8716;SDS011;4395;48.554;8.820;2022-12-16T04:51:04;25.52;;;18.05;;
8716;SDS011;4395;48.554;8.820;2022-12-16T04:53:25;24.55;;;18.05;;
8716;SDS011;4395;48.554;8.820;2022-12-16T04:55:47;24.80;;;16.90;;
8716;SDS011;4395;48.554;8.820;2022-12-16T04:58:08;27.67;;;18.70;;
8716;SDS011;4395;48.554;8.820;2022-12-16T05:00:29;25.65;;;18.55;;
8716;SDS011;4395;48.554;8.820;2022-12-16T05:02:49;25.77;;;17.88;;
8716;SDS011;4395;48.554;8.820;2022-12-16T05:05:10;26.02;;;17.15;;
8716;SDS011;4395;48.554;8.820;2022-12-16T05:07:31;25.45;;;18.10;;
8716;SDS011;4395;48.554;8.820;2022-12-16T05:09:52;25.63;;;17.38;;
8716;SDS011;4395;48.554;8.820;2022-12-16T05:12:14;25.30;;;17.40;;
8716;SDS011;4395;48.554;8.820;2022-12-16T05:14:34;24.77;;;16.55;;
8716;SDS011;4395;48.554;8.820;2022-12-16T05:16:55;24.33;;;16.35;;
8716;SDS011;4395;48.554;8.820;2022-12-16T05:19:16;24.40;;;16.55;;
8716;SDS011;4395;48.554;8.820;2022-12-16T05:21:37;22.25;;;16.73;;
8716;SDS011;4395;48.554;8.820;2022-12-16T05:23:58;24.30;;;16.40;;
8716;SDS011;4395;48.554;8.820;2022-12-16T05:26:18;24.08;;;17.05;;
8716;SDS011;4395;48.554;8.820;2022-12-16T05:28:40;25.77;;;17.30;;
8716;SDS011;4395;48.554;8.820;2022-12-16T05:31:15;27.77;;;18.63;;
8716;SDS011;4395;48.554;8.820;2022-12-16T05:33:36;25.88;;;17.73;;
8716;SDS011;4395;48.554;8.820;2022-12-16T05:35:57;24.65;;;17.73;;
8716;SDS011;4395;48.554;8.820;2022-12-16T05:38:18;28.50;;;18.92;;
8716;SDS011;4395;48.554;8.820;2022-12-16T05:40:39;25.10;;;17.73;;
8716;SDS011;4395;48.554;8.820;2022-12-16T05:43:01;23.27;;;17.02;;
8716;SDS011;4395;48.554;8.820;2022-12-16T05:45:23;23.60;;;17.02;;
8716;SDS011;4395;48.554;8.820;2022-12-16T05:47:46;26.42;;;17.83;;
8716;SDS011;4395;48.554;8.820;2022-12-16T05:50:07;26.02;;;17.83;;
8716;SDS011;4395;48.554;8.820;2022-12-16T05:52:46;25.83;;;18.00;;
8716;SDS011;4395;48.554;8.820;2022-12-16T05:55:08;29.77;;;19.20;;
8716;SDS011;4395;48.554;8.820;2022-12-16T05:57:34;26.08;;;18.52;;
8716;SDS011;4395;48.554;8.820;2022-12-16T05:59:55;24.65;;;17.23;;
8716;SDS011;4395;48.554;8.820;2022-12-16T06:02:17;26.73;;;17.88;;
8716;SDS011;4395;48.554;8.820;2022-12-16T06:04:38;29.60;;;20.27;;
8716;SDS011;4395;48.554;8.820;2022-12-16T06:06:58;27.33;;;19.13;;
8716;SDS011;4395;48.554;8.820;2022-12-16T06:09:19;27.63;;;18.83;;
8716;SDS011;4395;48.554;8.820;2022-12-16T06:11:40;25.77;;;17.27;;
8716;SDS011;4395;48.554;8.820;2022-12-16T06:14:00;23.38;;;16.20;;
8716;SDS011;4395;48.554;8.820;2022-12-16T06:16:21;25.05;;;16.08;;
8716;SDS011;4395;48.554;8.820;2022-12-16T06:18:43;38.20;;;22.67;;
8716;SDS011;4395;48.554;8.820;2022-12-16T06:21:04;28.63;;;16.50;;
8716;SDS011;4395;48.554;8.820;2022-12-16T06:23:25;19.33;;;12.73;;
8716;SDS011;4395;48.554;8.820;2022-12-16T06:25:45;22.73;;;14.63;;
8716;SDS011;4395;48.554;8.820;2022-12-16T06:28:06;19.08;;;13.23;;
8716;SDS011;4395;48.554;8.820;2022-12-16T06:30:26;19.60;;;13.60;;
8716;SDS011;4395;48.554;8.820;2022-12-16T06:32:47;21.20;;;13.65;;
8716;SDS011;4395;48.554;8.820;2022-12-16T06:35:09;12.45;;;8.30;;
8716;SDS011;4395;48.554;8.820;2022-12-16T06:37:30;20.85;;;11.57;;
8716;SDS011;4395;48.554;8.820;2022-12-16T06:39:50;13.95;;;10.48;;
8716;SDS011;4395;48.554;8.820;2022-12-16T06:42:11;15.02;;;12.70;;
8716;SDS011;4395;48.554;8.820;2022-12-16T06:44:31;16.75;;;11.60;;
8716;SDS011;4395;48.554;8.820;2022-12-16T06:46:52;16.95;;;11.55;;
8716;SDS011;4395;48.554;8.820;2022-12-16T06:49:13;22.42;;;14.95;;
8716;SDS011;4395;48.554;8.820;2022-12-16T06:51:35;17.70;;;12.95;;
8716;SDS011;4395;48.554;8.820;2022-12-16T06:53:56;19.42;;;14.02;;
8716;SDS011;4395;48.554;8.820;2022-12-16T06:56:16;18.20;;;12.40;;
8716;SDS011;4395;48.554;8.820;2022-12-16T06:58:37;16.77;;;12.10;;
8716;SDS011;4395;48.554;8.820;2022-12-16T07:00:59;17.67;;;12.23;;
8716;SDS011;4395;48.554;8.820;2022-12-16T07:03:20;17.17;;;11.88;;
8716;SDS011;4395;48.554;8.820;2022-12-16T07:05:42;20.02;;;12.95;;
8716;SDS011;4395;48.554;8.820;2022-12-16T07:08:16;18.77;;;13.05;;
8716;SDS011;4395;48.554;8.820;2022-12-16T07:10:36;15.93;;;11.90;;
8716;SDS011;4395;48.554;8.820;2022-12-16T07:13:14;17.40;;;12.25;;
8716;SDS011;4395;48.554;8.820;2022-12-16T07:15:35;18.80;;;12.52;;
8716;SDS011;4395;48.554;8.820;2022-12-16T07:17:56;21.92;;;13.38;;
8716;SDS011;4395;48.554;8.820;2022-12-16T07:20:17;28.38;;;17.35;;
8716;SDS011;4395;48.554;8.820;2022-12-16T07:22:41;17.55;;;12.88;;
8716;SDS011;4395;48.554;8.820;2022-12-16T07:25:15;16.67;;;11.57;;
8716;SDS011;4395;48.554;8.820;2022-12-16T07:27:35;19.08;;;12.65;;
8716;SDS011;4395;48.554;8.820;2022-12-16T07:29:56;19.23;;;11.85;;
8716;SDS011;4395;48.554;8.820;2022-12-16T07:32:16;15.88;;;11.27;;
8716;SDS011;4395;48.554;8.820;2022-12-16T07:34:37;18.90;;;12.60;;
8716;SDS011;4395;48.554;8.820;2022-12-16T07:37:09;16.85;;;11.85;;
8716;SDS011;4395;48.554;8.820;2022-12-16T07:39:30;15.85;;;10.70;;
8716;SDS011;4395;48.554;8.820;2022-12-16T07:41:57;16.45;;;11.63;;
8716;SDS011;4395;48.554;8.820;2022-12-16T07:44:18;15.55;;;10.07;;
8716;SDS011;4395;48.554;8.820;2022-12-16T07:46:39;14.38;;;10.32;;
8716;SDS011;4395;48.554;8.820;2022-12-16T07:49:00;17.30;;;11.30;;
8716;SDS011;4395;48.554;8.820;2022-12-16T07:51:20;15.43;;;10.32;;
8716;SDS011;4395;48.554;8.820;2022-12-16T07:53:41;15.85;;;10.60;;
8716;SDS011;4395;48.554;8.820;2022-12-16T07:56:07;15.60;;;11.25;;
8716;SDS011;4395;48.554;8.820;2022-12-16T07:58:30;15.07;;;11.10;;
8716;SDS011;4395;48.554;8.820;2022-12-16T08:00:50;13.40;;;10.25;;
8716;SDS011;4395;48.554;8.820;2022-12-16T08:03:12;15.38;;;10.40;;
8716;SDS011;4395;48.554;8.820;2022-12-16T08:05:33;13.38;;;10.18;;
8716;SDS011;4395;48.554;8.820;2022-12-16T08:07:54;14.23;;;10.93;;
8716;SDS011;4395;48.554;8.820;2022-12-16T08:10:15;13.20;;;9.60;;
8716;SDS011;4395;48.554;8.820;2022-12-16T08:12:35;15.55;;;10.15;;
8716;SDS011;4395;48.554;8.820;2022-12-16T08:14:57;12.95;;;9.43;;
8716;SDS011;4395;48.554;8.820;2022-12-16T08:17:20;14.35;;;10.25;;
8716;SDS011;4395;48.554;8.820;2022-12-16T08:19:41;14.85;;;10.13;;
8716;SDS011;4395;48.554;8.820;2022-12-16T08:22:02;13.82;;;9.48;;
8716;SDS011;4395;48.554;8.820;2022-12-16T08:24:22;12.70;;;9.35;;
8716;SDS011;4395;48.554;8.820;2022-12-16T08:26:51;12.32;;;9.05;;
8716;SDS011;4395;48.554;8.820;2022-12-16T08:29:12;14.52;;;9.85;;
8716;SDS011;4395;48.554;8.820;2022-12-16T08:31:46;11.65;;;8.55;;
8716;SDS011;4395;48.554;8.820;2022-12-16T08:34:07;14.07;;;9.27;;
8716;SDS011;4395;48.554;8.820;2022-12-16T08:36:28;13.77;;;10.52;;
8716;SDS011;4395;48.554;8.820;2022-12-16T08:38:49;14.20;;;10.30;;
8716;SDS011;4395;48.554;8.820;2022-12-16T08:41:10;13.60;;;9.68;;
8716;SDS011;4395;48.554;8.820;2022-12-16T08:43:30;13.80;;;10.23;;
8716;SDS011;4395;48.554;8.820;2022-12-16T08:45:52;11.95;;;9.07;;
8716;SDS011;4395;48.554;8.820;2022-12-16T08:48:21;14.00;;;9.50;;
8716;SDS011;4395;48.554;8.820;2022-12-16T08:50:41;14.73;;;10.18;;
8716;SDS011;4395;48.554;8.820;2022-12-16T08:53:03;12.55;;;8.85;;
8716;SDS011;4395;48.554;8.820;2022-12-16T08:55:24;13.98;;;10.32;;
8716;SDS011;4395;48.554;8.820;2022-12-16T08:57:51;13.02;;;8.75;;
8716;SDS011;4395;48.554;8.820;2022-12-16T09:00:12;16.02;;;9.57;;
8716;SDS011;4395;48.554;8.820;2022-12-16T09:02:33;13.13;;;8.65;;
8716;SDS011;4395;48.554;8.820;2022-12-16T09:05:10;16.67;;;10.93;;
8716;SDS011;4395;48.554;8.820;2022-12-16T09:07:31;14.05;;;9.75;;
8716;SDS011;4395;48.554;8.820;2022-12-16T09:09:51;15.77;;;11.15;;
8716;SDS011;4395;48.554;8.820;2022-12-16T09:12:12;17.98;;;10.93;;
8716;SDS011;4395;48.554;8.820;2022-12-16T09:14:32;15.38;;;10.05;;
8716;SDS011;4395;48.554;8.820;2022-12-16T09:16:53;20.02;;;12.05;;
8716;SDS011;4395;48.554;8.820;2022-12-16T09:19:14;21.95;;;14.18;;
8716;SDS011;4395;48.554;8.820;2022-12-16T09:21:36;24.58;;;15.93;;
8716;SDS011;4395;48.554;8.820;2022-12-16T09:23:57;20.65;;;13.20;;
8716;SDS011;4395;48.554;8.820;2022-12-16T09:26:17;15.30;;;9.80;;
8716;SDS011;4395;48.554;8.820;2022-12-16T09:28:38;14.38;;;9.77;;
8716;SDS011;4395;48.554;8.820;2022-12-16T09:30:59;14.75;;;9.38;;
8716;SDS011;4395;48.554;8.820;2022-12-16T09:33:20;10.63;;;7.65;;
8716;SDS011;4395;48.554;8.820;2022-12-16T09:35:40;9.50;;;7.57;;
8716;SDS011;4395;48.554;8.820;2022-12-16T09:38:02;11.80;;;8.43;;
8716;SDS011;4395;48.554;8.820;2022-12-16T09:40:23;10.13;;;7.53;;
8716;SDS011;4395;48.554;8.820;2022-12-16T09:42:46;13.10;;;8.80;;
8716;SDS011;4395;48.554;8.820;2022-12-16T09:45:13;14.38;;;9.63;;
8716;SDS011;4395;48.554;8.820;2022-12-16T09:47:44;14.70;;;10.23;;
8716;SDS011;4395;48.554;8.820;2022-12-16T09:50:17;12.02;;;8.35;;
8716;SDS011;4395;48.554;8.820;2022-12-16T09:52:43;12.73;;;7.55;;
8716;SDS011;4395;48.554;8.820;2022-12-16T09:55:14;9.18;;;6.85;;
8716;SDS011;4395;48.554;8.820;2022-12-16T09:57:43;9.80;;;7.05;;
8716;SDS011;4395;48.554;8.820;2022-12-16T10:00:19;12.68;;;8.43;;
8716;SDS011;4395;48.554;8.820;2022-12-16T10:02:41;12.18;;;8.20;;
8716;SDS011;4395;48.554;8.820;2022-12-16T10:05:08;11.00;;;7.30;;
8716;SDS011;4395;48.554;8.820;2022-12-16T10:07:31;8.20;;;6.80;;
8716;SDS011;4395;48.554;8.820;2022-12-16T10:09:59;13.98;;;9.25;;
8716;SDS011;4395;48.554;8.820;2022-12-16T10:12:34;14.23;;;8.57;;
8716;SDS011;4395;48.554;8.820;2022-12-16T10:15:06;10.52;;;7.65;;
8716;SDS011;4395;48.554;8.820;2022-12-16T10:17:44;11.63;;;6.88;;
8716;SDS011;4395;48.554;8.820;2022-12-16T10:20:06;8.90;;;6.88;;
8716;SDS011;4395;48.554;8.820;2022-12-16T10:22:36;11.73;;;7.40;;
8716;SDS011;4395;48.554;8.820;2022-12-16T10:25:05;12.70;;;7.45;;
8716;SDS011;4395;48.554;8.820;2022-12-16T10:27:41;10.98;;;7.10;;
8716;SDS011;4395;48.554;8.820;2022-12-16T10:30:08;108.13;;;53.55;;
8716;SDS011;4395;48.554;8.820;2022-12-16T10:32:34;19.70;;;12.30;;
8716;SDS011;4395;48.554;8.820;2022-12-16T10:35:00;12.52;;;9.68;;
8716;SDS011;4395;48.554;8.820;2022-12-16T10:37:25;10.93;;;7.32;;
8716;SDS011;4395;48.554;8.820;2022-12-16T10:39:56;8.75;;;7.40;;
8716;SDS011;4395;48.554;8.820;2022-12-16T10:42:20;9.82;;;7.45;;
8716;SDS011;4395;48.554;8.820;2022-12-16T10:44:52;16.98;;;9.32;;
8716;SDS011;4395;48.554;8.820;2022-12-16T10:47:17;21.45;;;13.35;;
8716;SDS011;4395;48.554;8.820;2022-12-16T10:49:37;11.23;;;8.57;;
8716;SDS011;4395;48.554;8.820;2022-12-16T10:51:58;16.02;;;11.00;;
8716;SDS011;4395;48.554;8.820;2022-12-16T10:54:22;14.43;;;7.72;;
8716;SDS011;4395;48.554;8.820;2022-12-16T10:56:52;12.45;;;8.30;;
8716;SDS011;4395;48.554;8.820;2022-12-16T10:59:22;13.40;;;8.75;;
8716;SDS011;4395;48.554;8.820;2022-12-16T11:01:58;12.30;;;7.82;;
8716;SDS011;4395;48.554;8.820;2022-12-16T11:04:33;11.45;;;7.60;;
8716;SDS011;4395;48.554;8.820;2022-12-16T11:06:56;10.55;;;7.82;;
8716;SDS011;4395;48.554;8.820;2022-12-16T11:09:21;9.38;;;6.90;;
8716;SDS011;4395;48.554;8.820;2022-12-16T11:11:46;7.90;;;6.50;;
8716;SDS011;4395;48.554;8.820;2022-12-16T11:14:16;8.82;;;6.95;;
8716;SDS011;4395;48.554;8.820;2022-12-16T11:17:12;8.80;;;6.43;;
8716;SDS011;4395;48.554;8.820;2022-12-16T11:19:37;9.63;;;7.40;;
8716;SDS011;4395;48.554;8.820;2022-12-16T11:22:02;9.85;;;7.90;;
8716;SDS011;4395;48.554;8.820;2022-12-16T11:24:26;9.15;;;6.05;;
8716;SDS011;4395;48.554;8.820;2022-12-16T11:26:51;6.35;;;5.68;;
8716;SDS011;4395;48.554;8.820;2022-12-16T11:29:13;8.55;;;6.22;;
8716;SDS011;4395;48.554;8.820;2022-12-16T11:31:36;8.98;;;6.72;;
8716;SDS011;4395;48.554;8.820;2022-12-16T11:34:02;8.65;;;6.78;;
8716;SDS011;4395;48.554;8.820;2022-12-16T11:36:24;11.52;;;7.95;;
8716;SDS011;4395;48.554;8.820;2022-12-16T11:39:01;7.38;;;5.55;;
8716;SDS011;4395;48.554;8.820;2022-12-16T11:41:24;8.25;;;6.15;;
8716;SDS011;4395;48.554;8.820;2022-12-16T11:43:48;8.45;;;5.68;;
8716;SDS011;4395;48.554;8.820;2022-12-16T11:46:12;9.05;;;5.95;;
8716;SDS011;4395;48.554;8.820;2022-12-16T11:48:41;7.00;;;5.25;;
8716;SDS011;4395;48.554;8.820;2022-12-16T11:51:09;7.45;;;5.68;;
8716;SDS011;4395;48.554;8.820;2022-12-16T11:53:35;7.60;;;6.13;;
8716;SDS011;4395;48.554;8.820;2022-12-16T11:56:02;11.02;;;6.95;;
8716;SDS011;4395;48.554;8.820;2022-12-16T11:58:26;13.25;;;7.95;;
8716;SDS011;4395;48.554;8.820;2022-12-16T12:00:57;14.50;;;8.65;;
8716;SDS011;4395;48.554;8.820;2022-12-16T12:03:29;10.13;;;7.63;;
8716;SDS011;4395;48.554;8.820;2022-12-16T12:05:55;10.48;;;7.18;;
8716;SDS011;4395;48.554;8.820;2022-12-16T12:08:27;16.10;;;9.85;;
8716;SDS011;4395;48.554;8.820;2022-12-16T12:11:00;16.77;;;10.98;;
8716;SDS011;4395;48.554;8.820;2022-12-16T12:13:36;13.43;;;8.68;;
8716;SDS011;4395;48.554;8.820;2022-12-16T12:16:07;14.38;;;9.20;;
8716;SDS011;4395;48.554;8.820;2022-12-16T12:18:37;11.95;;;8.25;;
8716;SDS011;4395;48.554;8.820;2022-12-16T12:21:06;6.75;;;5.78;;
8716;SDS011;4395;48.554;8.820;2022-12-16T12:23:39;10.18;;;7.53;;
8716;SDS011;4395;48.554;8.820;2022-12-16T12:26:10;8.10;;;6.55;;
8716;SDS011;4395;48.554;8.820;2022-12-16T12:28:34;9.07;;;6.55;;
8716;SDS011;4395;48.554;8.820;2022-12-16T12:31:08;6.05;;;4.72;;
8716;SDS011;4395;48.554;8.820;2022-12-16T12:33:43;6.53;;;5.28;;
8716;SDS011;4395;48.554;8.820;2022-12-16T12:36:14;6.78;;;5.55;;
8716;SDS011;4395;48.554;8.820;2022-12-16T12:38:47;9.18;;;6.35;;
8716;SDS011;4395;48.554;8.820;2022-12-16T12:41:22;9.23;;;6.15;;
8716;SDS011;4395;48.554;8.820;2022-12-16T12:44:01;11.50;;;7.57;;
8716;SDS011;4395;48.554;8.820;2022-12-16T12:46:50;7.82;;;5.45;;
8716;SDS011;4395;48.554;8.820;2022-12-16T12:49:20;8.45;;;6.28;;
8716;SDS011;4395;48.554;8.820;2022-12-16T12:51:50;8.05;;;5.80;;
8716;SDS011;4395;48.554;8.820;2022-12-16T12:54:22;8.90;;;6.43;;
8716;SDS011;4395;48.554;8.820;2022-12-16T12:56:50;9.82;;;7.47;;
8716;SDS011;4395;48.554;8.820;2022-12-16T12:59:13;9.02;;;6.38;;
8716;SDS011;4395;48.554;8.820;2022-12-16T13:01:41;7.57;;;6.43;;
8716;SDS011;4395;48.554;8.820;2022-12-16T13:04:05;9.23;;;7.03;;
8716;SDS011;4395;48.554;8.820;2022-12-16T13:06:32;14.00;;;9.43;;
8716;SDS011;4395;48.554;8.820;2022-12-16T13:08:56;7.75;;;6.40;;
8716;SDS011;4395;48.554;8.820;2022-12-16T13:11:19;7.63;;;5.72;;
8716;SDS011;4395;48.554;8.820;2022-12-16T13:13:40;8.85;;;6.47;;
8716;SDS011;4395;48.554;8.820;2022-12-16T13:16:00;8.57;;;6.60;;
8716;SDS011;4395;48.554;8.820;2022-12-16T13:18:24;7.85;;;6.57;;
8716;SDS011;4395;48.554;8.820;2022-12-16T13:20:54;6.30;;;5.43;;
8716;SDS011;4395;48.554;8.820;2022-12-16T13:23:27;11.60;;;9.88;;
8716;SDS011;4395;48.554;8.820;2022-12-16T13:25:50;8.05;;;7.13;;
8716;SDS011;4395;48.554;8.820;2022-12-16T13:28:19;7.28;;;6.05;;
8716;SDS011;4395;48.554;8.820;2022-12-16T13:30:56;7.22;;;5.85;;
8716;SDS011;4395;48.554;8.820;2022-12-16T13:33:27;7.57;;;5.55;;
8716;SDS011;4395;48.554;8.820;2022-12-16T13:35:53;180.25;;;89.22;;
8716;SDS011;4395;48.554;8.820;2022-12-16T13:38:18;82.93;;;39.03;;
8716;SDS011;4395;48.554;8.820;2022-12-16T13:40:51;18.45;;;11.27;;
8716;SDS011;4395;48.554;8.820;2022-12-16T13:43:16;10.27;;;7.18;;
8716;SDS011;4395;48.554;8.820;2022-12-16T13:46:12;8.45;;;7.07;;
8716;SDS011;4395;48.554;8.820;2022-12-16T13:48:36;7.88;;;6.38;;
8716;SDS011;4395;48.554;8.820;2022-12-16T13:50:59;8.77;;;6.90;;
8716;SDS011;4395;48.554;8.820;2022-12-16T13:53:20;8.50;;;6.43;;
8716;SDS011;4395;48.554;8.820;2022-12-16T13:55:43;8.88;;;6.93;;
8716;SDS011;4395;48.554;8.820;2022-12-16T13:58:25;8.50;;;6.38;;
8716;SDS011;4395;48.554;8.820;2022-12-16T14:00:59;7.93;;;6.28;;
8716;SDS011;4395;48.554;8.820;2022-12-16T14:03:26;8.65;;;6.40;;
8716;SDS011;4395;48.554;8.820;2022-12-16T14:05:59;8.48;;;6.63;;
8716;SDS011;4395;48.554;8.820;2022-12-16T14:08:23;9.85;;;6.47;;